sensor_id;sensor_type;location;lat;lon;timestamp;pressure;altitude;pressure_sealevel;temperature;humidity
6514;BME280;3290;47.716;9.070;2022-08-19T00:01:42;96534.63;;;20.43;100.00
6514;BME280;3290;47.716;9.070;2022-08-19T00:04:10;96527.25;;;20.58;100.00
6514;BME280;3290;47.716;9.070;2022-08-19T00:06:39;96543.53;;;20.57;100.00
6514;BME280;3290;47.716;9.070;2022-08-19T00:09:07;96546.09;;;20.67;100.00
6514;BME280;3290;47.716;9.070;2022-08-19T00:11:33;96554.38;;;20.65;100.00
6514;BME280;3290;47.716;9.070;2022-08-19T00:14:01;96559.53;;;20.75;100.00
6514;BME280;3290;47.716;9.070;2022-08-19T00:16:27;96563.16;;;20.84;100.00
6514;BME280;3290;47.716;9.070;2022-08-19T00:18:54;96554.88;;;20.86;100.00
6514;BME280;3290;47.716;9.070;2022-08-19T00:21:20;96548.34;;;20.96;100.00
6514;BME280;3290;47.716;9.070;2022-08-19T00:23:46;96539.72;;;20.86;100.00
6514;BME280;3290;47.716;9.070;2022-08-19T00:26:11;96543.94;;;20.87;100.00
6514;BME280;3290;47.716;9.070;2022-08-19T00:28:37;96544.44;;;20.71;100.00
6514;BME280;3290;47.716;9.070;2022-08-19T00:31:03;96549.91;;;20.79;100.00
6514;BME280;3290;47.716;9.070;2022-08-19T00:33:30;96554.22;;;20.75;100.00
6514;BME280;3290;47.716;9.070;2022-08-19T00:36:05;96558.75;;;20.75;100.00
6514;BME280;3290;47.716;9.070;2022-08-19T00:38:33;96552.09;;;20.77;100.00
6514;BME280;3290;47.716;9.070;2022-08-19T00:40:58;96550.53;;;20.71;100.00
6514;BME280;3290;47.716;9.070;2022-08-19T00:43:26;96549.91;;;20.79;100.00
6514;BME280;3290;47.716;9.070;2022-08-19T00:45:52;96548.31;;;20.78;100.00
6514;BME280;3290;47.716;9.070;2022-08-19T00:48:18;96553.16;;;20.76;100.00
6514;BME280;3290;47.716;9.070;2022-08-19T00:50:45;96558.97;;;20.78;100.00
6514;BME280;3290;47.716;9.070;2022-08-19T00:53:14;96558.44;;;20.58;100.00
6514;BME280;3290;47.716;9.070;2022-08-19T00:55:40;96554.66;;;20.64;100.00
6514;BME280;3290;47.716;9.070;2022-08-19T00:58:13;96560.69;;;20.69;100.00
6514;BME280;3290;47.716;9.070;2022-08-19T01:00:41;96555.88;;;20.48;100.00
6514;BME280;3290;47.716;9.070;2022-08-19T01:03:11;96552.88;;;20.54;100.00
6514;BME280;3290;47.716;9.070;2022-08-19T01:05:37;96560.34;;;20.52;100.00
6514;BME280;3290;47.716;9.070;2022-08-19T01:08:05;96554.44;;;20.55;100.00
6514;BME280;3290;47.716;9.070;2022-08-19T01:10:35;96556.88;;;20.75;100.00
6514;BME280;3290;47.716;9.070;2022-08-19T01:13:02;96557.63;;;20.57;100.00
6514;BME280;3290;47.716;9.070;2022-08-19T01:15:33;96544.13;;;20.49;100.00
6514;BME280;3290;47.716;9.070;2022-08-19T01:18:06;96551.06;;;20.50;100.00
6514;BME280;3290;47.716;9.070;2022-08-19T01:20:32;96541.19;;;20.50;100.00
6514;BME280;3290;47.716;9.070;2022-08-19T01:23:00;96544.13;;;20.49;100.00
6514;BME280;3290;47.716;9.070;2022-08-19T01:25:39;96532.69;;;20.48;100.00
6514;BME280;3290;47.716;9.070;2022-08-19T01:28:07;96539.91;;;20.48;100.00
6514;BME280;3290;47.716;9.070;2022-08-19T01:30:34;96534.25;;;20.31;100.00
6514;BME280;3290;47.716;9.070;2022-08-19T01:33:01;96535.88;;;20.50;100.00
6514;BME280;3290;47.716;9.070;2022-08-19T01:35:30;96533.78;;;20.71;100.00
6514;BME280;3290;47.716;9.070;2022-08-19T01:38:02;96518.19;;;20.83;100.00
6514;BME280;3290;47.716;9.070;2022-08-19T01:40:31;96529.47;;;20.75;100.00
6514;BME280;3290;47.716;9.070;2022-08-19T01:42:58;96540.00;;;20.61;100.00
6514;BME280;3290;47.716;9.070;2022-08-19T01:45:26;96536.97;;;20.49;100.00
6514;BME280;3290;47.716;9.070;2022-08-19T01:47:53;96543.34;;;20.48;100.00
6514;BME280;3290;47.716;9.070;2022-08-19T01:50:19;96533.72;;;20.52;100.00
6514;BME280;3290;47.716;9.070;2022-08-19T01:52:45;96538.03;;;20.48;100.00
6514;BME280;3290;47.716;9.070;2022-08-19T01:55:15;96537.47;;;20.51;100.00
6514;BME280;3290;47.716;9.070;2022-08-19T01:57:42;96535.81;;;20.55;100.00
6514;BME280;3290;47.716;9.070;2022-08-19T02:00:12;96527.59;;;20.75;100.00
6514;BME280;3290;47.716;9.070;2022-08-19T02:02:39;96519.53;;;20.80;100.00
6514;BME280;3290;47.716;9.070;2022-08-19T02:05:05;96517.59;;;20.67;100.00
6514;BME280;3290;47.716;9.070;2022-08-19T02:07:32;96516.28;;;20.42;100.00
6514;BME280;3290;47.716;9.070;2022-08-19T02:09:57;96514.00;;;20.53;100.00
6514;BME280;3290;47.716;9.070;2022-08-19T02:12:23;96515.94;;;20.48;100.00
6514;BME280;3290;47.716;9.070;2022-08-19T02:14:48;96516.78;;;20.44;100.00
6514;BME280;3290;47.716;9.070;2022-08-19T02:17:14;96519.75;;;20.42;100.00
6514;BME280;3290;47.716;9.070;2022-08-19T02:19:39;96515.16;;;20.48;100.00
6514;BME280;3290;47.716;9.070;2022-08-19T02:22:05;96518.38;;;20.45;100.00
6514;BME280;3290;47.716;9.070;2022-08-19T02:24:30;96517.38;;;20.41;100.00
6514;BME280;3290;47.716;9.070;2022-08-19T02:26:56;96519.22;;;20.40;100.00
6514;BME280;3290;47.716;9.070;2022-08-19T02:29:22;96521.56;;;20.47;100.00
6514;BME280;3290;47.716;9.070;2022-08-19T02:31:47;96516.38;;;20.55;100.00
6514;BME280;3290;47.716;9.070;2022-08-19T02:34:13;96520.72;;;20.51;100.00
6514;BME280;3290;47.716;9.070;2022-08-19T02:36:38;96515.94;;;20.48;100.00
6514;BME280;3290;47.716;9.070;2022-08-19T02:39:04;96522.63;;;20.46;100.00
6514;BME280;3290;47.716;9.070;2022-08-19T02:41:32;96518.88;;;20.47;100.00
6514;BME280;3290;47.716;9.070;2022-08-19T02:43:59;96521.28;;;20.48;100.00
6514;BME280;3290;47.716;9.070;2022-08-19T02:46:31;96528.47;;;20.48;100.00
6514;BME280;3290;47.716;9.070;2022-08-19T02:49:01;96529.66;;;20.37;100.00
6514;BME280;3290;47.716;9.070;2022-08-19T02:51:30;96538.72;;;20.36;100.00
6514;BME280;3290;47.716;9.070;2022-08-19T02:53:56;96535.44;;;20.44;100.00
6514;BME280;3290;47.716;9.070;2022-08-19T02:56:22;96534.97;;;20.37;100.00
6514;BME280;3290;47.716;9.070;2022-08-19T02:58:49;96533.91;;;20.38;100.00
6514;BME280;3290;47.716;9.070;2022-08-19T03:01:31;96532.84;;;20.39;100.00
6514;BME280;3290;47.716;9.070;2022-08-19T03:03:59;96525.09;;;20.42;100.00
6514;BME280;3290;47.716;9.070;2022-08-19T03:06:26;96527.75;;;20.42;100.00
6514;BME280;3290;47.716;9.070;2022-08-19T03:08:52;96518.44;;;20.40;100.00
6514;BME280;3290;47.716;9.070;2022-08-19T03:11:19;96525.59;;;20.44;100.00
6514;BME280;3290;47.716;9.070;2022-08-19T03:13:46;96526.38;;;20.45;100.00
6514;BME280;3290;47.716;9.070;2022-08-19T03:16:14;96525.38;;;20.41;100.00
6514;BME280;3290;47.716;9.070;2022-08-19T03:18:40;96528.81;;;20.41;100.00
6514;BME280;3290;47.716;9.070;2022-08-19T03:21:05;96528.31;;;20.39;100.00
6514;BME280;3290;47.716;9.070;2022-08-19T03:23:30;96527.81;;;20.37;100.00
6514;BME280;3290;47.716;9.070;2022-08-19T03:25:56;96535.16;;;20.45;100.00
6514;BME280;3290;47.716;9.070;2022-08-19T03:28:21;96529.59;;;20.42;100.00
6514;BME280;3290;47.716;9.070;2022-08-19T03:31:06;96528.66;;;20.33;100.00
6514;BME280;3290;47.716;9.070;2022-08-19T03:33:35;96530.81;;;20.31;100.00
6514;BME280;3290;47.716;9.070;2022-08-19T03:36:05;96539.28;;;20.33;100.00
6514;BME280;3290;47.716;9.070;2022-08-19T03:38:32;96536.44;;;20.24;100.00
6514;BME280;3290;47.716;9.070;2022-08-19T03:41:02;96535.34;;;20.30;100.00
6514;BME280;3290;47.716;9.070;2022-08-19T03:43:28;96540.88;;;20.34;100.00
6514;BME280;3290;47.716;9.070;2022-08-19T03:46:05;96533.69;;;20.34;100.00
6514;BME280;3290;47.716;9.070;2022-08-19T03:48:32;96537.28;;;20.25;100.00
6514;BME280;3290;47.716;9.070;2022-08-19T03:50:59;96531.50;;;20.18;100.00
6514;BME280;3290;47.716;9.070;2022-08-19T03:53:26;96527.13;;;20.27;100.00
6514;BME280;3290;47.716;9.070;2022-08-19T03:55:51;96528.38;;;20.34;100.00
6514;BME280;3290;47.716;9.070;2022-08-19T03:58:18;96523.09;;;20.29;100.00
6514;BME280;3290;47.716;9.070;2022-08-19T04:00:44;96520.22;;;20.26;100.00
6514;BME280;3290;47.716;9.070;2022-08-19T04:03:09;96521.06;;;20.21;100.00
6514;BME280;3290;47.716;9.070;2022-08-19T04:05:34;96516.03;;;20.20;100.00
6514;BME280;3290;47.716;9.070;2022-08-19T04:08:00;96508.50;;;20.27;100.00
6514;BME280;3290;47.716;9.070;2022-08-19T04:10:27;96509.63;;;20.21;100.00
6514;BME280;3290;47.716;9.070;2022-08-19T04:12:53;96508.50;;;20.27;100.00
6514;BME280;3290;47.716;9.070;2022-08-19T04:15:19;96506.13;;;20.25;100.00
6514;BME280;3290;47.716;9.070;2022-08-19T04:17:44;96502.72;;;20.20;100.00
6514;BME280;3290;47.716;9.070;2022-08-19T04:20:10;96501.34;;;20.22;100.00
6514;BME280;3290;47.716;9.070;2022-08-19T04:22:35;96501.72;;;20.16;100.00
6514;BME280;3290;47.716;9.070;2022-08-19T04:25:01;96497.00;;;20.08;100.00
6514;BME280;3290;47.716;9.070;2022-08-19T04:27:26;96498.19;;;20.20;100.00
6514;BME280;3290;47.716;9.070;2022-08-19T04:29:52;96505.34;;;20.25;100.00
6514;BME280;3290;47.716;9.070;2022-08-19T04:32:20;96501.19;;;20.14;100.00
6514;BME280;3290;47.716;9.070;2022-08-19T04:34:46;96508.56;;;20.22;100.00
6514;BME280;3290;47.716;9.070;2022-08-19T04:37:11;96512.81;;;20.23;100.00
6514;BME280;3290;47.716;9.070;2022-08-19T04:39:38;96524.41;;;20.32;100.00
6514;BME280;3290;47.716;9.070;2022-08-19T04:42:22;96522.19;;;20.39;100.00
6514;BME280;3290;47.716;9.070;2022-08-19T04:45:09;96531.50;;;20.18;100.00
6514;BME280;3290;47.716;9.070;2022-08-19T04:47:39;96538.56;;;20.27;100.00
6514;BME280;3290;47.716;9.070;2022-08-19T04:50:06;96547.22;;;20.38;100.00
6514;BME280;3290;47.716;9.070;2022-08-19T04:52:33;96538.44;;;20.37;100.00
6514;BME280;3290;47.716;9.070;2022-08-19T04:54:58;96537.19;;;20.30;100.00
6514;BME280;3290;47.716;9.070;2022-08-19T04:57:24;96545.63;;;20.37;100.00
6514;BME280;3290;47.716;9.070;2022-08-19T04:59:54;96544.94;;;20.26;100.00
6514;BME280;3290;47.716;9.070;2022-08-19T05:02:19;96553.56;;;20.18;100.00
6514;BME280;3290;47.716;9.070;2022-08-19T05:04:45;96547.22;;;20.38;100.00
6514;BME280;3290;47.716;9.070;2022-08-19T05:07:10;96557.41;;;20.31;100.00
6514;BME280;3290;47.716;9.070;2022-08-19T05:09:36;96560.06;;;20.31;100.00
6514;BME280;3290;47.716;9.070;2022-08-19T05:12:02;96573.28;;;20.41;100.00
6514;BME280;3290;47.716;9.070;2022-08-19T05:14:28;96568.69;;;20.46;100.00
6514;BME280;3290;47.716;9.070;2022-08-19T05:16:54;96574.97;;;20.32;100.00
6514;BME280;3290;47.716;9.070;2022-08-19T05:19:19;96571.72;;;20.35;100.00
6514;BME280;3290;47.716;9.070;2022-08-19T05:22:03;96570.44;;;20.32;100.00
6514;BME280;3290;47.716;9.070;2022-08-19T05:24:47;96569.53;;;20.42;100.00
6514;BME280;3290;47.716;9.070;2022-08-19T05:27:12;96571.63;;;20.45;100.00
6514;BME280;3290;47.716;9.070;2022-08-19T05:29:38;96577.44;;;20.47;100.00
6514;BME280;3290;47.716;9.070;2022-08-19T05:32:05;96579.66;;;20.40;100.00
6514;BME280;3290;47.716;9.070;2022-08-19T05:34:33;96588.09;;;20.47;100.00
6514;BME280;3290;47.716;9.070;2022-08-19T05:37:01;96591.63;;;20.42;100.00
6514;BME280;3290;47.716;9.070;2022-08-19T05:39:29;96594.50;;;20.46;100.00
6514;BME280;3290;47.716;9.070;2022-08-19T05:41:58;96593.47;;;20.42;100.00
6514;BME280;3290;47.716;9.070;2022-08-19T05:44:28;96592.38;;;20.48;100.00
6514;BME280;3290;47.716;9.070;2022-08-19T05:46:57;96592.38;;;20.48;100.00
6514;BME280;3290;47.716;9.070;2022-08-19T05:49:23;96592.28;;;20.52;100.00
6514;BME280;3290;47.716;9.070;2022-08-19T05:51:50;96592.91;;;20.45;100.00
6514;BME280;3290;47.716;9.070;2022-08-19T05:54:16;96589.25;;;20.41;100.00
6514;BME280;3290;47.716;9.070;2022-08-19T05:56:43;96591.78;;;20.50;100.00
6514;BME280;3290;47.716;9.070;2022-08-19T05:59:09;96580.28;;;20.55;100.00
6514;BME280;3290;47.716;9.070;2022-08-19T06:01:40;96574.19;;;20.54;100.00
6514;BME280;3290;47.716;9.070;2022-08-19T06:04:06;96578.41;;;20.55;100.00
6514;BME280;3290;47.716;9.070;2022-08-19T06:06:33;96585.84;;;20.58;100.00
6514;BME280;3290;47.716;9.070;2022-08-19T06:09:00;96573.59;;;20.57;100.00
6514;BME280;3290;47.716;9.070;2022-08-19T06:16:28;96575.25;;;20.53;100.00
6514;BME280;3290;47.716;9.070;2022-08-19T06:18:59;96571.91;;;20.66;100.00
6514;BME280;3290;47.716;9.070;2022-08-19T06:21:36;96571.22;;;20.56;100.00
6514;BME280;3290;47.716;9.070;2022-08-19T06:24:04;96577.69;;;20.73;100.00
6514;BME280;3290;47.716;9.070;2022-08-19T06:26:30;96582.91;;;20.60;100.00
6514;BME280;3290;47.716;9.070;2022-08-19T06:28:56;96582.44;;;20.76;100.00
6514;BME280;3290;47.716;9.070;2022-08-19T06:31:25;96587.22;;;20.79;100.00
6514;BME280;3290;47.716;9.070;2022-08-19T06:33:51;96593.66;;;20.73;100.00
6514;BME280;3290;47.716;9.070;2022-08-19T06:36:22;96585.44;;;20.70;100.00
6514;BME280;3290;47.716;9.070;2022-08-19T06:38:49;96581.28;;;20.59;100.00
6514;BME280;3290;47.716;9.070;2022-08-19T06:41:14;96584.72;;;20.64;100.00
6514;BME280;3290;47.716;9.070;2022-08-19T06:43:40;96579.94;;;20.61;100.00
6514;BME280;3290;47.716;9.070;2022-08-19T06:46:17;96585.38;;;20.75;100.00
6514;BME280;3290;47.716;9.070;2022-08-19T06:48:45;96585.66;;;20.73;100.00
6514;BME280;3290;47.716;9.070;2022-08-19T06:51:13;96591.13;;;20.63;100.00
6514;BME280;3290;47.716;9.070;2022-08-19T06:53:41;96590.50;;;20.71;100.00
6514;BME280;3290;47.716;9.070;2022-08-19T06:56:13;96591.63;;;20.65;100.00
6514;BME280;3290;47.716;9.070;2022-08-19T06:58:39;96589.28;;;20.59;100.00
6514;BME280;3290;47.716;9.070;2022-08-19T07:01:05;96592.66;;;20.69;100.00
6514;BME280;3290;47.716;9.070;2022-08-19T07:03:32;96588.56;;;20.77;100.00
6514;BME280;3290;47.716;9.070;2022-08-19T07:06:07;96594.88;;;20.57;100.00
6514;BME280;3290;47.716;9.070;2022-08-19T07:08:34;96598.97;;;20.73;100.00
6514;BME280;3290;47.716;9.070;2022-08-19T07:11:05;96592.97;;;20.63;100.00
6514;BME280;3290;47.716;9.070;2022-08-19T07:13:32;96592.72;;;20.59;100.00
6514;BME280;3290;47.716;9.070;2022-08-19T07:16:08;96596.16;;;20.65;100.00
6514;BME280;3290;47.716;9.070;2022-08-19T07:18:35;96591.63;;;20.65;100.00
6514;BME280;3290;47.716;9.070;2022-08-19T07:21:13;96587.88;;;20.66;100.00
6514;BME280;3290;47.716;9.070;2022-08-19T07:23:39;96595.75;;;20.76;100.00
6514;BME280;3290;47.716;9.070;2022-08-19T07:26:10;96603.09;;;20.84;100.00
6514;BME280;3290;47.716;9.070;2022-08-19T07:28:35;96598.19;;;20.73;100.00
6514;BME280;3290;47.716;9.070;2022-08-19T07:31:05;96602.59;;;20.82;100.00
6514;BME280;3290;47.716;9.070;2022-08-19T07:33:31;96604.91;;;20.70;100.00
6514;BME280;3290;47.716;9.070;2022-08-19T07:35:57;96607.03;;;20.68;100.00
6514;BME280;3290;47.716;9.070;2022-08-19T07:38:23;96618.78;;;20.67;100.00
6514;BME280;3290;47.716;9.070;2022-08-19T07:40:49;96618.94;;;20.76;100.00
6514;BME280;3290;47.716;9.070;2022-08-19T07:43:17;96613.94;;;20.69;100.00
6514;BME280;3290;47.716;9.070;2022-08-19T07:45:45;96608.63;;;20.69;100.00
6514;BME280;3290;47.716;9.070;2022-08-19T07:48:12;96619.34;;;20.59;100.00
6514;BME280;3290;47.716;9.070;2022-08-19T07:50:37;96615.59;;;20.65;100.00
6514;BME280;3290;47.716;9.070;2022-08-19T07:53:03;96617.47;;;20.65;100.00
6514;BME280;3290;47.716;9.070;2022-08-19T07:55:29;96619.72;;;20.76;100.00
6514;BME280;3290;47.716;9.070;2022-08-19T07:57:54;96617.50;;;20.83;100.00
6514;BME280;3290;47.716;9.070;2022-08-19T08:00:20;96619.69;;;20.81;100.00
6514;BME280;3290;47.716;9.070;2022-08-19T08:02:45;96613.25;;;20.82;100.00
6514;BME280;3290;47.716;9.070;2022-08-19T08:05:11;96621.56;;;20.81;100.00
6514;BME280;3290;47.716;9.070;2022-08-19T08:07:55;96624.50;;;20.79;100.00
6514;BME280;3290;47.716;9.070;2022-08-19T08:10:39;96634.41;;;20.74;100.00
6514;BME280;3290;47.716;9.070;2022-08-19T08:13:04;96632.53;;;20.74;100.00
6514;BME280;3290;47.716;9.070;2022-08-19T08:15:30;96635.81;;;20.66;100.00
6514;BME280;3290;47.716;9.070;2022-08-19T08:17:56;96633.19;;;20.61;100.00
6514;BME280;3290;47.716;9.070;2022-08-19T08:20:23;96636.41;;;20.63;100.00
6514;BME280;3290;47.716;9.070;2022-08-19T08:22:48;96642.69;;;20.72;100.00
6514;BME280;3290;47.716;9.070;2022-08-19T08:25:34;96638.94;;;20.73;100.00
6514;BME280;3290;47.716;9.070;2022-08-19T08:28:01;96644.75;;;20.75;100.00
6514;BME280;3290;47.716;9.070;2022-08-19T08:30:28;96648.28;;;20.71;100.00
6514;BME280;3290;47.716;9.070;2022-08-19T08:32:54;96648.56;;;20.69;100.00
6514;BME280;3290;47.716;9.070;2022-08-19T08:35:22;96653.41;;;20.67;100.00
6514;BME280;3290;47.716;9.070;2022-08-19T08:37:49;96665.38;;;20.65;100.00
6514;BME280;3290;47.716;9.070;2022-08-19T08:40:20;96653.91;;;20.69;100.00
6514;BME280;3290;47.716;9.070;2022-08-19T08:43:01;96653.28;;;20.77;100.00
6514;BME280;3290;47.716;9.070;2022-08-19T08:45:30;96663.72;;;20.74;100.00
6514;BME280;3290;47.716;9.070;2022-08-19T08:48:02;96663.81;;;20.64;100.00
6514;BME280;3290;47.716;9.070;2022-08-19T08:50:37;96664.13;;;20.57;100.00
6514;BME280;3290;47.716;9.070;2022-08-19T08:53:06;96665.16;;;20.61;100.00
6514;BME280;3290;47.716;9.070;2022-08-19T08:55:33;96668.34;;;20.63;100.00
6514;BME280;3290;47.716;9.070;2022-08-19T08:58:07;96670.47;;;20.61;100.00
6514;BME280;3290;47.716;9.070;2022-08-19T09:00:41;96672.06;;;20.62;100.00
6514;BME280;3290;47.716;9.070;2022-08-19T09:03:20;96667.13;;;20.51;100.00
6514;BME280;3290;47.716;9.070;2022-08-19T09:06:00;96678.59;;;20.47;100.00
6514;BME280;3290;47.716;9.070;2022-08-19T09:11:00;96678.84;;;20.50;100.00
6514;BME280;3290;47.716;9.070;2022-08-19T09:13:44;96685.41;;;20.57;100.00
6514;BME280;3290;47.716;9.070;2022-08-19T09:16:19;96688.03;;;20.62;100.00
6514;BME280;3290;47.716;9.070;2022-08-19T09:18:55;96680.25;;;20.71;100.00
6514;BME280;3290;47.716;9.070;2022-08-19T09:21:23;96691.75;;;20.66;100.00
6514;BME280;3290;47.716;9.070;2022-08-19T09:23:50;96691.69;;;20.71;100.00
6514;BME280;3290;47.716;9.070;2022-08-19T09:26:19;96686.16;;;20.63;100.00
6514;BME280;3290;47.716;9.070;2022-08-19T09:28:47;96695.44;;;20.70;100.00
6514;BME280;3290;47.716;9.070;2022-08-19T09:31:16;96689.53;;;20.73;100.00
6514;BME280;3290;47.716;9.070;2022-08-19T09:33:42;96687.47;;;20.70;100.00
6514;BME280;3290;47.716;9.070;2022-08-19T09:36:13;96692.16;;;20.78;100.00
6514;BME280;3290;47.716;9.070;2022-08-19T09:38:39;96699.13;;;20.46;100.00
6514;BME280;3290;47.716;9.070;2022-08-19T09:41:11;96694.63;;;20.70;100.00
6514;BME280;3290;47.716;9.070;2022-08-19T09:43:39;96704.41;;;20.79;100.00
6514;BME280;3290;47.716;9.070;2022-08-19T09:46:06;96694.97;;;20.63;100.00
6514;BME280;3290;47.716;9.070;2022-08-19T09:48:33;96703.06;;;20.48;100.00
6514;BME280;3290;47.716;9.070;2022-08-19T09:51:10;96696.81;;;20.63;100.00
6514;BME280;3290;47.716;9.070;2022-08-19T09:53:37;96710.34;;;20.71;100.00
6514;BME280;3290;47.716;9.070;2022-08-19T09:56:04;96717.38;;;20.57;100.00
6514;BME280;3290;47.716;9.070;2022-08-19T09:58:31;96713.63;;;20.58;100.00
6514;BME280;3290;47.716;9.070;2022-08-19T10:00:57;96721.16;;;20.51;100.00
6514;BME280;3290;47.716;9.070;2022-08-19T10:03:25;96722.56;;;20.16;100.00
6514;BME280;3290;47.716;9.070;2022-08-19T10:05:50;96715.44;;;20.35;100.00
6514;BME280;3290;47.716;9.070;2022-08-19T10:08:21;96722.41;;;20.31;100.00
6514;BME280;3290;47.716;9.070;2022-08-19T10:10:49;96718.00;;;20.49;100.00
6514;BME280;3290;47.716;9.070;2022-08-19T10:13:18;96718.03;;;20.45;100.00
6514;BME280;3290;47.716;9.070;2022-08-19T10:15:47;96728.22;;;20.38;100.00
6514;BME280;3290;47.716;9.070;2022-08-19T10:18:17;96734.47;;;20.51;100.00
6514;BME280;3290;47.716;9.070;2022-08-19T10:20:44;96728.22;;;20.38;100.00
6514;BME280;3290;47.716;9.070;2022-08-19T10:23:11;96726.28;;;20.43;100.00
6514;BME280;3290;47.716;9.070;2022-08-19T10:25:37;96723.47;;;20.30;100.00
6514;BME280;3290;47.716;9.070;2022-08-19T10:28:03;96729.66;;;20.25;100.00
6514;BME280;3290;47.716;9.070;2022-08-19T10:30:29;96729.34;;;20.32;100.00
6514;BME280;3290;47.716;9.070;2022-08-19T10:32:55;96732.78;;;20.32;100.00
6514;BME280;3290;47.716;9.070;2022-08-19T10:35:21;96724.03;;;20.32;100.00
6514;BME280;3290;47.716;9.070;2022-08-19T10:37:47;96733.13;;;20.21;100.00
6514;BME280;3290;47.716;9.070;2022-08-19T10:40:12;96735.28;;;20.19;100.00
6514;BME280;3290;47.716;9.070;2022-08-19T10:42:38;96734.91;;;20.35;100.00
6514;BME280;3290;47.716;9.070;2022-08-19T10:45:05;96736.97;;;20.38;100.00
6514;BME280;3290;47.716;9.070;2022-08-19T10:47:32;96745.06;;;20.28;100.00
6514;BME280;3290;47.716;9.070;2022-08-19T10:49:58;96740.03;;;20.27;100.00
6514;BME280;3290;47.716;9.070;2022-08-19T10:52:47;96746.50;;;20.16;100.00
6514;BME280;3290;47.716;9.070;2022-08-19T10:55:13;96745.19;;;20.13;100.00
6514;BME280;3290;47.716;9.070;2022-08-19T10:57:57;96749.09;;;20.21;100.00
6514;BME280;3290;47.716;9.070;2022-08-19T11:00:24;96751.81;;;20.16;100.00
6514;BME280;3290;47.716;9.070;2022-08-19T11:02:50;96757.72;;;20.08;100.00
6514;BME280;3290;47.716;9.070;2022-08-19T11:05:16;96748.63;;;20.14;100.00
6514;BME280;3290;47.716;9.070;2022-08-19T11:07:43;96747.44;;;19.97;100.00
6514;BME280;3290;47.716;9.070;2022-08-19T11:10:12;96740.75;;;20.04;100.00
6514;BME280;3290;47.716;9.070;2022-08-19T11:12:40;96755.06;;;20.08;100.00
6514;BME280;3290;47.716;9.070;2022-08-19T11:15:07;96755.59;;;20.05;100.00
6514;BME280;3290;47.716;9.070;2022-08-19T11:17:34;96759.84;;;20.11;100.00
6514;BME280;3290;47.716;9.070;2022-08-19T11:20:01;96763.34;;;20.35;100.00
6514;BME280;3290;47.716;9.070;2022-08-19T11:22:28;96765.78;;;20.31;100.00
6514;BME280;3290;47.716;9.070;2022-08-19T11:24:53;96757.06;;;20.26;100.00
6514;BME280;3290;47.716;9.070;2022-08-19T11:27:20;96753.94;;;20.14;100.00
6514;BME280;3290;47.716;9.070;2022-08-19T11:29:46;96757.63;;;20.23;100.00
6514;BME280;3290;47.716;9.070;2022-08-19T11:32:12;96751.00;;;20.15;100.00
6514;BME280;3290;47.716;9.070;2022-08-19T11:34:39;96762.41;;;20.21;100.00
6514;BME280;3290;47.716;9.070;2022-08-19T11:37:05;96765.22;;;20.01;100.00
6514;BME280;3290;47.716;9.070;2022-08-19T11:39:32;96770.34;;;20.26;100.00
6514;BME280;3290;47.716;9.070;2022-08-19T11:41:59;96772.53;;;20.19;100.00
6514;BME280;3290;47.716;9.070;2022-08-19T11:44:26;96783.28;;;20.42;100.00
6514;BME280;3290;47.716;9.070;2022-08-19T11:46:52;96764.00;;;20.22;100.00
6514;BME280;3290;47.716;9.070;2022-08-19T11:49:19;96769.19;;;20.37;100.00
6514;BME280;3290;47.716;9.070;2022-08-19T11:51:46;96762.72;;;20.19;100.00
6514;BME280;3290;47.716;9.070;2022-08-19T11:54:14;96760.41;;;20.03;100.00
6514;BME280;3290;47.716;9.070;2022-08-19T11:56:41;96770.31;;;20.31;100.00
6514;BME280;3290;47.716;9.070;2022-08-19T11:59:07;96767.38;;;20.32;100.00
6514;BME280;3290;47.716;9.070;2022-08-19T12:01:33;96771.22;;;20.49;100.00
6514;BME280;3290;47.716;9.070;2022-08-19T12:04:00;96762.19;;;20.46;100.00
6514;BME280;3290;47.716;9.070;2022-08-19T12:06:29;96765.94;;;20.45;100.00
6514;BME280;3290;47.716;9.070;2022-08-19T12:09:01;96766.03;;;20.35;100.00
6514;BME280;3290;47.716;9.070;2022-08-19T12:11:28;96756.09;;;20.45;100.00
6514;BME280;3290;47.716;9.070;2022-08-19T12:13:54;96758.41;;;20.56;100.00
6514;BME280;3290;47.716;9.070;2022-08-19T12:16:23;96759.78;;;20.49;100.00
6514;BME280;3290;47.716;9.070;2022-08-19T12:18:49;96761.06;;;20.56;100.00
6514;BME280;3290;47.716;9.070;2022-08-19T12:21:19;96759.50;;;20.50;100.00
6514;BME280;3290;47.716;9.070;2022-08-19T12:23:48;96759.84;;;20.44;100.00
6514;BME280;3290;47.716;9.070;2022-08-19T12:26:14;96764.28;;;20.53;100.00
6514;BME280;3290;47.716;9.070;2022-08-19T12:28:40;96769.91;;;20.47;100.00
6514;BME280;3290;47.716;9.070;2022-08-19T12:31:06;96767.59;;;20.41;100.00
6514;BME280;3290;47.716;9.070;2022-08-19T12:33:32;96770.56;;;20.62;100.00
6514;BME280;3290;47.716;9.070;2022-08-19T12:36:03;96767.34;;;20.70;100.00
6514;BME280;3290;47.716;9.070;2022-08-19T12:38:29;96762.13;;;20.55;100.00
6514;BME280;3290;47.716;9.070;2022-08-19T12:40:55;96765.97;;;20.73;100.00
6514;BME280;3290;47.716;9.070;2022-08-19T12:43:20;96774.75;;;20.73;100.00
6514;BME280;3290;47.716;9.070;2022-08-19T12:45:46;96767.59;;;20.74;100.00
6514;BME280;3290;47.716;9.070;2022-08-19T12:48:12;96764.91;;;20.74;100.00
6514;BME280;3290;47.716;9.070;2022-08-19T12:50:43;96765.72;;;20.74;100.00
6514;BME280;3290;47.716;9.070;2022-08-19T12:53:11;96771.13;;;20.64;100.00
6514;BME280;3290;47.716;9.070;2022-08-19T12:55:36;96775.69;;;20.87;100.00
6514;BME280;3290;47.716;9.070;2022-08-19T12:58:01;96776.88;;;20.76;100.00
6514;BME280;3290;47.716;9.070;2022-08-19T13:00:27;96782.69;;;20.78;100.00
6514;BME280;3290;47.716;9.070;2022-08-19T13:02:54;96776.03;;;20.81;100.00
6514;BME280;3290;47.716;9.070;2022-08-19T13:05:23;96791.63;;;20.92;100.00
6514;BME280;3290;47.716;9.070;2022-08-19T13:07:51;96782.44;;;20.80;100.00
6514;BME280;3290;47.716;9.070;2022-08-19T13:10:19;96786.69;;;20.81;100.00
6514;BME280;3290;47.716;9.070;2022-08-19T13:12:48;96782.94;;;20.82;100.00
6514;BME280;3290;47.716;9.070;2022-08-19T13:15:15;96790.97;;;20.77;100.00
6514;BME280;3290;47.716;9.070;2022-08-19T13:17:45;96792.75;;;20.86;100.00
6514;BME280;3290;47.716;9.070;2022-08-19T13:20:13;96796.44;;;20.90;100.00
6514;BME280;3290;47.716;9.070;2022-08-19T13:22:38;96798.31;;;20.89;100.00